Accueil
METAR-TAF:

METAR-TAF

Aéroports :

Oxford, Angleterre

Aéroport d'Oxford Kidlington

latitude: 51-50-13N, longitude: 1-19-12W, altitude: 82 m

Observation

Le bulletin a été fait il y a 31 minutes, à 09:50 UTC
Vent 1 kt de nord
Température 10°C
Humidité 71%
Pression 1017 hPa
Visibilité 10 km ou plus
Nuages fragmentés à une hauteur de 1700 ft

METAR: EGTK 280950Z 36001KT 9999 BKN017 10/05 Q1017

Heure: 11:21 (10:21 UTC)

Prévision

Le bulletin a été fait il y a 2 heures et 22 minutes, à 07:59 UTC
Prévision valable du 28 à 09 UTC au 28 à 18 UTC
Vent 3 kt de direction variable
Visibilité 10 km ou plus
Nuages épars à une hauteur de 2500 ft
Probabilité 30% :
Temporairement
du 28 à 09 UTC au 28 à 12 UTC
Visibilité: 7000 m
Nuages fragmentés à une hauteur de 1200 ft
faibles averses de pluie

TAF: EGTK 280759Z 2809/2818 VRB03KT 9999 SCT025 PROB30 TEMPO 2809/2812 7000 -SHRA BKN012

Observations et prévisions météorologiques de plus de 4000 aéroports (messages METAR et TAF).

Les stations disponibles sont représentées par des disques jaunes et rouges sur la carte.

Passer la souris dessus pour voir le nom de la station.

Cliquer dessus pour voir les observations et prévisions météorologiques.

Pour changer de carte: cliquez sur les boutons verts avec une croix noire pour zoomer, sur le bouton vert avec un tiret pour effectuer un zoom arrière, ou sur les flèches vertes pour les cartes adjacentes.


METAR-TAF: